Time;durP1;ratioP1;P1;durP2;ratioP2;P2;SDS_P1;SDS_P2;PMS_P1;PMS_P2;Temp;Humidity;BMP_temperature;BMP_pressure;BME280_temperature;BME280_humidity;BME280_pressure;Samples;Min_cycle;Max_cycle;Signal;HPM_P1;HPM_P2
2024/03/13 00:01:02;;;;;;;48.40;34.00;;;6.70;99.90;;;;;;5147689;27;20038;-66
2024/03/13 00:03:28;;;;;;;47.90;32.67;;;6.70;99.90;;;;;;5144694;27;20039;-66
2024/03/13 00:05:55;;;;;;;48.85;33.47;;;6.70;99.90;;;;;;5112180;27;20386;-66
2024/03/13 00:08:22;;;;;;;51.72;32.55;;;6.70;99.90;;;;;;5131153;27;20076;-66
2024/03/13 00:10:50;;;;;;;50.17;33.67;;;6.80;99.90;;;;;;5126627;27;20039;-66
2024/03/13 00:13:16;;;;;;;48.13;33.42;;;6.80;99.90;;;;;;5144005;27;20542;-66
2024/03/13 00:15:42;;;;;;;51.67;33.17;;;6.80;99.90;;;;;;5125751;27;20035;-66
2024/03/13 00:18:08;;;;;;;45.70;31.65;;;6.80;99.90;;;;;;5127380;27;20035;-66
2024/03/13 00:20:34;;;;;;;43.90;29.10;;;6.80;99.90;;;;;;5110562;27;20114;-66
2024/03/13 00:23:01;;;;;;;46.58;31.33;;;6.80;99.90;;;;;;5129052;27;20039;-66
2024/03/13 00:25:27;;;;;;;42.42;29.98;;;6.80;99.90;;;;;;5111814;27;20034;-66
2024/03/13 00:27:53;;;;;;;46.90;30.48;;;6.80;99.90;;;;;;5091391;27;20087;-66
2024/03/13 00:30:19;;;;;;;43.13;29.77;;;6.90;99.90;;;;;;5132489;27;20461;-66
2024/03/13 00:32:45;;;;;;;46.42;31.75;;;6.90;99.90;;;;;;5112898;27;20034;-66
2024/03/13 00:35:13;;;;;;;44.55;31.58;;;6.90;99.90;;;;;;5125842;27;20032;-66
2024/03/13 00:37:39;;;;;;;42.40;30.92;;;6.90;99.90;;;;;;5148919;27;20047;-68
2024/03/13 00:40:06;;;;;;;42.13;29.13;;;6.90;99.90;;;;;;5136574;27;20034;-66
2024/03/13 00:42:32;;;;;;;41.40;29.33;;;6.90;99.90;;;;;;5126817;27;20375;-66
2024/03/13 00:44:58;;;;;;;39.63;29.02;;;7.00;99.90;;;;;;5110204;27;20087;-66
2024/03/13 00:47:23;;;;;;;43.40;30.00;;;7.00;99.90;;;;;;5143573;27;20043;-66
2024/03/13 00:49:52;;;;;;;47.20;31.33;;;7.00;99.90;;;;;;5113095;27;20477;-66
2024/03/13 00:52:18;;;;;;;40.28;29.35;;;7.00;99.90;;;;;;5110044;27;20377;-66
2024/03/13 00:54:47;;;;;;;50.20;31.10;;;7.00;99.90;;;;;;5128718;27;20071;-66
2024/03/13 00:57:13;;;;;;;41.75;28.63;;;7.00;99.90;;;;;;5145057;27;20117;-66
2024/03/13 00:59:42;;;;;;;42.00;29.92;;;7.00;99.90;;;;;;5108826;27;20039;-66
2024/03/13 01:02:08;;;;;;;46.03;29.40;;;7.00;99.90;;;;;;5130654;27;20802;-66
2024/03/13 01:04:35;;;;;;;41.78;28.38;;;7.00;99.90;;;;;;5128178;27;20083;-66
2024/03/13 01:07:01;;;;;;;42.92;30.67;;;7.00;99.90;;;;;;5113147;27;20031;-66
2024/03/13 01:09:26;;;;;;;42.97;30.38;;;7.00;99.90;;;;;;5108813;27;20117;-66
2024/03/13 01:11:53;;;;;;;40.72;29.08;;;7.10;99.90;;;;;;5145300;27;20126;-66
2024/03/13 01:14:21;;;;;;;41.20;29.42;;;7.10;99.90;;;;;;5124029;27;20061;-66
2024/03/13 01:16:51;;;;;;;44.47;28.77;;;7.10;99.90;;;;;;5107200;27;20050;-66
2024/03/13 01:19:19;;;;;;;41.63;29.17;;;7.10;99.90;;;;;;5128683;27;20127;-66
2024/03/13 01:21:48;;;;;;;39.95;29.20;;;7.00;99.90;;;;;;5113534;27;20085;-66
2024/03/13 01:24:17;;;;;;;38.13;27.70;;;7.10;99.90;;;;;;5104020;27;20043;-66
2024/03/13 01:26:42;;;;;;;37.63;28.10;;;7.10;99.90;;;;;;5129504;27;20385;-66
2024/03/13 01:29:08;;;;;;;40.10;28.08;;;7.10;99.90;;;;;;5129328;27;20043;-66
2024/03/13 01:31:35;;;;;;;37.10;28.20;;;7.20;99.90;;;;;;5112161;27;20046;-66
2024/03/13 01:34:02;;;;;;;34.28;26.65;;;7.10;99.90;;;;;;5108606;27;20131;-66
2024/03/13 01:39:12;;;;;;;36.90;27.67;;;7.20;99.90;;;;;;5144226;27;20500;-66
2024/03/13 01:55:44;;;;;;;34.72;25.73;;;7.30;99.90;;;;;;5125325;27;20039;-66
2024/03/13 01:58:12;;;;;;;39.15;26.67;;;7.30;99.90;;;;;;5111808;27;20042;-66
2024/03/13 02:03:22;;;;;;;37.17;26.25;;;7.30;99.90;;;;;;5126500;27;20536;-66
2024/03/13 02:05:51;;;;;;;37.90;27.00;;;7.30;99.90;;;;;;5140181;27;20039;-66
2024/03/13 02:08:18;;;;;;;34.85;25.55;;;7.30;99.90;;;;;;5142491;27;20039;-66
2024/03/13 02:10:44;;;;;;;35.58;25.10;;;7.30;99.90;;;;;;5112734;27;20095;-66
2024/03/13 02:13:15;;;;;;;34.70;24.77;;;7.40;99.90;;;;;;5112282;27;20138;-66
2024/03/13 02:15:42;;;;;;;35.22;25.60;;;7.40;99.90;;;;;;5129941;27;20389;-66
2024/03/13 02:18:16;;;;;;;35.15;25.05;;;7.40;99.90;;;;;;5142874;27;20481;-66
2024/03/13 02:20:43;;;;;;;33.58;23.35;;;7.40;99.90;;;;;;5128501;27;20043;-66
2024/03/13 02:23:09;;;;;;;34.08;24.92;;;7.40;99.90;;;;;;5128261;27;20043;-66
2024/03/13 02:25:35;;;;;;;35.95;25.25;;;7.50;99.90;;;;;;5143144;27;20043;-66
2024/03/13 02:28:01;;;;;;;33.58;24.88;;;7.40;99.90;;;;;;5105933;27;20505;-66
2024/03/13 02:30:27;;;;;;;33.08;23.38;;;7.60;99.90;;;;;;5112509;27;20039;-66
2024/03/13 02:32:54;;;;;;;35.78;24.42;;;7.50;99.90;;;;;;5126687;27;20039;-66
2024/03/13 02:35:20;;;;;;;31.00;22.98;;;7.50;99.90;;;;;;5126078;27;20066;-66
2024/03/13 02:37:46;;;;;;;30.15;22.95;;;7.50;99.90;;;;;;5109849;27;20086;-66
2024/03/13 02:40:18;;;;;;;32.05;23.90;;;7.60;99.90;;;;;;5144565;27;20095;-66
2024/03/13 02:42:45;;;;;;;33.13;23.48;;;7.60;99.90;;;;;;5124863;27;20435;-66
2024/03/13 02:45:13;;;;;;;30.33;23.05;;;7.60;99.90;;;;;;5108980;27;20064;-66
2024/03/13 02:47:41;;;;;;;33.35;22.58;;;7.60;99.90;;;;;;5107600;27;20063;-66
2024/03/13 02:50:11;;;;;;;33.50;23.52;;;7.60;99.90;;;;;;5108612;27;20043;-66
2024/03/13 02:52:38;;;;;;;34.00;23.92;;;7.60;99.90;;;;;;5139080;27;20035;-66
2024/03/13 02:55:04;;;;;;;30.00;22.35;;;7.60;99.90;;;;;;5127048;27;20126;-66
2024/03/13 02:57:30;;;;;;;34.50;22.98;;;7.60;99.90;;;;;;5141513;27;20066;-66
2024/03/13 02:59:56;;;;;;;31.73;22.23;;;7.70;99.90;;;;;;5110982;27;20068;-66
2024/03/13 03:02:21;;;;;;;31.73;23.45;;;7.60;99.90;;;;;;5124928;27;20503;-66
2024/03/13 03:04:47;;;;;;;31.65;23.38;;;7.60;99.90;;;;;;5127187;27;20031;-66
2024/03/13 03:07:13;;;;;;;32.15;23.52;;;7.70;99.90;;;;;;5105534;27;20039;-66
2024/03/13 03:09:39;;;;;;;32.55;23.23;;;7.60;99.90;;;;;;5126422;27;20056;-66
2024/03/13 03:12:09;;;;;;;32.10;23.90;;;7.70;99.90;;;;;;5125900;27;20430;-66
2024/03/13 03:14:36;;;;;;;31.73;23.75;;;7.70;99.90;;;;;;5113117;27;20051;-66
2024/03/13 03:17:02;;;;;;;29.65;23.77;;;7.60;99.90;;;;;;5113515;27;20039;-66
2024/03/13 03:19:28;;;;;;;32.65;22.92;;;7.70;99.90;;;;;;5108154;27;20091;-66
2024/03/13 03:21:54;;;;;;;32.97;22.92;;;7.70;99.90;;;;;;5112279;27;20050;-66
2024/03/13 03:24:20;;;;;;;34.00;23.85;;;7.70;99.90;;;;;;5107122;27;20030;-66
2024/03/13 03:26:46;;;;;;;30.67;22.00;;;7.70;99.90;;;;;;5126927;27;20158;-66
2024/03/13 03:29:11;;;;;;;32.67;24.00;;;7.70;99.90;;;;;;5106460;27;20122;-66
2024/03/13 03:31:37;;;;;;;33.65;23.70;;;7.70;99.90;;;;;;5125760;27;20050;-66
2024/03/13 03:34:03;;;;;;;35.08;23.60;;;7.70;99.90;;;;;;5124277;27;20035;-66
2024/03/13 03:36:28;;;;;;;34.08;23.45;;;7.80;99.90;;;;;;5142426;27;20074;-66
2024/03/13 03:38:54;;;;;;;32.72;23.45;;;7.80;99.90;;;;;;5121625;27;20081;-66
2024/03/13 03:41:19;;;;;;;33.30;24.17;;;7.70;99.90;;;;;;5126960;27;20516;-66
2024/03/13 03:43:45;;;;;;;32.60;23.58;;;7.80;99.90;;;;;;5142543;27;20043;-66
2024/03/13 03:46:12;;;;;;;37.22;23.60;;;7.70;99.90;;;;;;5142288;27;20039;-66
2024/03/13 03:48:40;;;;;;;35.58;23.35;;;7.80;99.90;;;;;;5105746;27;20047;-66
2024/03/13 03:51:06;;;;;;;36.88;23.98;;;7.80;99.90;;;;;;5114595;27;20071;-66
2024/03/13 03:53:31;;;;;;;33.67;24.20;;;7.80;99.90;;;;;;5126948;27;20135;-66
2024/03/13 03:55:58;;;;;;;35.38;24.02;;;7.80;99.90;;;;;;5109876;27;20047;-66
2024/03/13 03:58:24;;;;;;;33.92;23.05;;;7.70;99.90;;;;;;5126228;27;20426;-66
2024/03/13 04:00:50;;;;;;;36.15;24.27;;;7.70;99.90;;;;;;5129113;27;20032;-66
2024/03/13 04:03:16;;;;;;;34.65;24.75;;;7.70;99.90;;;;;;5110833;27;21309;-66
2024/03/13 04:05:42;;;;;;;35.75;24.60;;;7.70;99.90;;;;;;5128104;27;20035;-66
2024/03/13 04:08:08;;;;;;;34.75;23.80;;;7.80;99.90;;;;;;5127896;27;20046;-66
2024/03/13 04:10:34;;;;;;;37.60;25.42;;;7.80;99.90;;;;;;5145983;27;20046;-66
2024/03/13 04:13:00;;;;;;;35.90;23.95;;;7.70;99.90;;;;;;5108389;27;20044;-66
2024/03/13 04:15:26;;;;;;;37.55;24.75;;;7.70;99.90;;;;;;5111467;27;20080;-66
2024/03/13 04:17:52;;;;;;;35.30;25.40;;;7.80;99.90;;;;;;5109455;27;20104;-66
2024/03/13 04:20:21;;;;;;;35.20;25.02;;;7.70;99.90;;;;;;5126877;27;20485;-66
2024/03/13 04:22:47;;;;;;;35.58;24.45;;;7.80;99.90;;;;;;5111266;27;20130;-66
2024/03/13 04:25:14;;;;;;;37.53;24.17;;;7.70;99.90;;;;;;5144575;27;20035;-66
2024/03/13 04:27:40;;;;;;;36.28;25.35;;;7.80;99.90;;;;;;5143613;27;20035;-66
2024/03/13 04:30:06;;;;;;;35.22;24.70;;;7.70;99.90;;;;;;5108361;27;21003;-66
2024/03/13 04:32:32;;;;;;;40.08;25.35;;;7.70;99.90;;;;;;5129103;27;20042;-66
2024/03/13 04:35:00;;;;;;;40.08;25.25;;;7.80;99.90;;;;;;5115421;27;20039;-66
2024/03/13 04:37:26;;;;;;;39.30;26.20;;;7.70;99.90;;;;;;5146572;27;20078;-66
2024/03/13 04:39:51;;;;;;;43.08;26.42;;;7.70;99.90;;;;;;5150642;27;20077;-66
2024/03/13 04:42:17;;;;;;;42.70;27.17;;;7.80;99.90;;;;;;5114075;27;20058;-66
2024/03/13 04:44:44;;;;;;;43.67;26.88;;;7.80;99.90;;;;;;5148518;27;20047;-66
2024/03/13 04:47:10;;;;;;;44.00;26.70;;;7.80;99.90;;;;;;5109910;27;20095;-66
2024/03/13 04:49:37;;;;;;;43.42;27.67;;;7.70;99.90;;;;;;5112921;27;20480;-66
2024/03/13 04:52:06;;;;;;;42.58;26.35;;;7.70;99.90;;;;;;5108695;27;20047;-66
2024/03/13 04:54:32;;;;;;;52.05;26.58;;;7.80;99.90;;;;;;5107709;27;20047;-66
2024/03/13 04:56:57;;;;;;;56.65;29.60;;;7.70;99.90;;;;;;5128677;27;20051;-66
2024/03/13 04:59:23;;;;;;;53.75;28.92;;;7.70;99.90;;;;;;5109043;27;20050;-65
2024/03/13 05:01:49;;;;;;;53.25;29.17;;;7.80;99.90;;;;;;5125991;27;20039;-66
2024/03/13 05:04:14;;;;;;;54.05;28.27;;;7.70;99.90;;;;;;5109451;27;20480;-66
2024/03/13 05:06:40;;;;;;;60.10;30.38;;;7.70;99.90;;;;;;5109982;27;20055;-66
2024/03/13 05:09:06;;;;;;;59.70;30.80;;;7.70;99.90;;;;;;5111086;27;20047;-66
2024/03/13 05:11:32;;;;;;;67.13;31.45;;;7.70;99.90;;;;;;5144188;27;20050;-66
2024/03/13 05:13:58;;;;;;;56.83;29.15;;;7.70;99.90;;;;;;5143286;27;20512;-66
2024/03/13 05:16:23;;;;;;;62.55;31.15;;;7.70;99.90;;;;;;5111177;27;20116;-66
2024/03/13 05:18:49;;;;;;;68.72;30.88;;;7.70;99.90;;;;;;5122807;27;20043;-66
2024/03/13 05:21:15;;;;;;;71.43;33.60;;;7.70;99.90;;;;;;5105593;27;20038;-66
2024/03/13 05:23:40;;;;;;;65.57;33.72;;;7.70;99.90;;;;;;5122077;27;20445;-66
2024/03/13 05:26:06;;;;;;;65.53;33.10;;;7.70;99.90;;;;;;5122027;27;20031;-66
2024/03/13 05:28:32;;;;;;;71.63;32.22;;;7.70;99.90;;;;;;5124200;27;20473;-66
2024/03/13 05:30:58;;;;;;;80.93;33.88;;;7.70;99.90;;;;;;5119337;27;20043;-66
2024/03/13 05:33:24;;;;;;;75.07;32.58;;;7.70;99.90;;;;;;5138870;27;20042;-66
2024/03/13 05:35:49;;;;;;;75.15;32.33;;;7.70;99.90;;;;;;5103372;27;20047;-66
2024/03/13 05:38:16;;;;;;;73.72;32.50;;;7.70;99.90;;;;;;5135142;27;20409;-66
2024/03/13 05:40:42;;;;;;;74.68;31.75;;;7.80;99.90;;;;;;5117666;27;20035;-66
2024/03/13 05:43:08;;;;;;;68.03;31.98;;;7.70;99.90;;;;;;5122455;27;20485;-66
2024/03/13 05:45:33;;;;;;;71.57;33.13;;;7.70;99.90;;;;;;5101162;27;20087;-66
2024/03/13 05:47:59;;;;;;;82.75;33.50;;;7.80;99.90;;;;;;5100794;27;20491;-66
2024/03/13 05:50:25;;;;;;;80.55;33.78;;;7.80;99.90;;;;;;5117955;27;20083;-66
2024/03/13 05:52:50;;;;;;;67.63;31.98;;;7.80;99.90;;;;;;5107015;27;20031;-66
2024/03/13 05:55:16;;;;;;;80.03;32.38;;;7.80;99.90;;;;;;5087059;27;20054;-66
2024/03/13 05:57:42;;;;;;;88.90;34.05;;;7.80;99.90;;;;;;5123786;27;20034;-66
2024/03/13 06:00:17;;;;;;;77.95;35.03;;;7.80;99.90;;;;;;5122372;27;20065;-66
2024/03/13 06:02:43;;;;;;;79.45;33.03;;;7.80;99.90;;;;;;5123982;27;20043;-66
2024/03/13 06:05:11;;;;;;;79.75;32.63;;;7.80;99.90;;;;;;5105503;27;20037;-66
2024/03/13 06:07:40;;;;;;;75.15;34.03;;;7.80;99.90;;;;;;5127749;27;20035;-66
2024/03/13 06:10:09;;;;;;;66.38;31.83;;;7.80;99.90;;;;;;5107324;27;20057;-66
2024/03/13 06:12:35;;;;;;;83.25;32.78;;;7.80;99.90;;;;;;5110179;27;20039;-66
2024/03/13 06:15:06;;;;;;;87.93;34.38;;;7.90;99.90;;;;;;5101324;27;20520;-66
2024/03/13 06:17:33;;;;;;;90.13;33.08;;;7.90;99.90;;;;;;5134586;27;20047;-67
2024/03/13 06:19:59;;;;;;;78.80;33.47;;;7.80;99.90;;;;;;5108643;27;20081;-67
2024/03/13 06:22:25;;;;;;;73.70;33.13;;;7.90;99.90;;;;;;5103769;27;20043;-67
2024/03/13 06:24:51;;;;;;;86.45;34.92;;;7.90;99.90;;;;;;5104976;27;20046;-66
2024/03/13 06:27:16;;;;;;;74.07;32.53;;;7.90;99.90;;;;;;5104653;27;20492;-66
2024/03/13 06:29:59;;;;;;;72.78;33.13;;;8.00;99.90;;;;;;5101182;27;20601;-66
2024/03/13 06:32:25;;;;;;;69.47;31.75;;;8.00;99.90;;;;;;5141847;27;20054;-66
2024/03/13 06:34:55;;;;;;;67.80;32.20;;;8.00;99.90;;;;;;5120171;27;20039;-67
2024/03/13 06:37:22;;;;;;;62.65;30.23;;;8.00;99.90;;;;;;5106179;27;20548;-66
2024/03/13 06:39:48;;;;;;;65.20;30.35;;;8.10;99.90;;;;;;5102431;27;20043;-67
2024/03/13 06:42:13;;;;;;;72.82;30.92;;;8.10;99.90;;;;;;5135372;27;20571;-67
2024/03/13 06:44:39;;;;;;;66.25;29.95;;;8.10;99.90;;;;;;5123235;27;20033;-67
2024/03/13 06:47:07;;;;;;;60.58;29.38;;;8.10;99.90;;;;;;5120891;27;20342;-66
2024/03/13 06:49:33;;;;;;;73.97;32.55;;;8.20;99.90;;;;;;5136886;27;21481;-67
2024/03/13 06:51:59;;;;;;;57.47;29.17;;;8.10;99.90;;;;;;5120837;27;20097;-67
2024/03/13 06:54:25;;;;;;;75.15;32.00;;;8.20;99.90;;;;;;5137676;27;20490;-67
2024/03/13 06:56:50;;;;;;;64.47;29.70;;;8.10;99.90;;;;;;5123323;27;20046;-67
2024/03/13 06:59:17;;;;;;;64.30;29.77;;;8.20;99.90;;;;;;5122965;27;20035;-66
2024/03/13 07:01:52;;;;;;;56.78;28.38;;;8.20;99.90;;;;;;5098651;28;20048;-66
2024/03/13 07:04:18;;;;;;;61.50;29.80;;;8.20;99.90;;;;;;5115780;27;20856;-66
2024/03/13 07:06:46;;;;;;;62.38;30.00;;;8.30;99.90;;;;;;5115874;28;20034;-66
2024/03/13 07:09:12;;;;;;;58.42;28.55;;;8.30;99.90;;;;;;5122569;27;20401;-66
2024/03/13 07:11:37;;;;;;;52.58;27.90;;;8.30;99.90;;;;;;5127466;27;20035;-66
2024/03/13 07:14:04;;;;;;;60.55;28.40;;;8.40;99.90;;;;;;5108425;27;20530;-66
2024/03/13 07:16:30;;;;;;;61.65;29.52;;;8.40;99.90;;;;;;5146233;27;20050;-66
2024/03/13 07:18:59;;;;;;;63.47;30.65;;;8.40;99.90;;;;;;5125630;27;20482;-67
2024/03/13 07:21:25;;;;;;;58.85;28.27;;;8.40;99.90;;;;;;5111511;27;20045;-66
2024/03/13 07:23:50;;;;;;;58.33;27.48;;;8.50;99.90;;;;;;5108379;27;20076;-66
2024/03/13 07:26:16;;;;;;;60.25;27.88;;;8.60;99.90;;;;;;5107300;27;20143;-66
2024/03/13 07:28:42;;;;;;;67.13;29.33;;;8.60;99.90;;;;;;5123673;27;20623;-67
2024/03/13 07:31:07;;;;;;;68.95;28.05;;;8.60;99.90;;;;;;5107130;27;20054;-67
2024/03/13 07:33:34;;;;;;;65.10;27.33;;;8.70;99.90;;;;;;5140314;27;20527;-66
2024/03/13 07:35:59;;;;;;;62.20;27.70;;;8.70;99.90;;;;;;5108923;27;20039;-67
2024/03/13 07:38:25;;;;;;;67.60;28.92;;;8.80;99.90;;;;;;5126438;27;20389;-66
2024/03/13 07:40:53;;;;;;;66.68;27.00;;;8.80;99.90;;;;;;5126486;27;20023;-67
2024/03/13 07:43:19;;;;;;;84.32;29.92;;;8.80;99.90;;;;;;5136268;27;20087;-66
2024/03/13 07:45:44;;;;;;;72.22;29.27;;;8.80;99.90;;;;;;5136937;27;20124;-66
2024/03/13 07:48:10;;;;;;;82.95;28.80;;;8.90;99.90;;;;;;5105927;27;20497;-67
2024/03/13 07:50:38;;;;;;;67.22;28.52;;;8.90;99.90;;;;;;5106779;27;20126;-66
2024/03/13 07:53:05;;;;;;;75.13;29.55;;;8.90;99.90;;;;;;5106203;27;20058;-66
2024/03/13 07:55:33;;;;;;;76.57;28.45;;;9.00;99.90;;;;;;5122923;27;20520;-66
2024/03/13 07:58:00;;;;;;;73.15;27.95;;;9.00;99.90;;;;;;5108215;27;20043;-66
2024/03/13 08:00:27;;;;;;;72.72;27.45;;;9.10;99.90;;;;;;5122276;27;20537;-66
2024/03/13 08:02:57;;;;;;;59.63;25.70;;;9.10;99.90;;;;;;5136572;27;20079;-67
2024/03/13 08:05:23;;;;;;;62.83;26.65;;;9.20;99.90;;;;;;5137594;27;20122;-67
2024/03/13 08:07:49;;;;;;;57.10;24.52;;;9.10;99.90;;;;;;5104117;27;20041;-67
2024/03/13 08:10:18;;;;;;;55.85;25.23;;;9.20;99.90;;;;;;5106245;27;20035;-67
2024/03/13 08:12:47;;;;;;;68.18;24.88;;;9.20;99.90;;;;;;5125446;27;20051;-67
2024/03/13 08:15:13;;;;;;;55.65;24.50;;;9.20;99.90;;;;;;5107423;27;20047;-67
2024/03/13 08:17:39;;;;;;;51.55;23.50;;;9.30;99.90;;;;;;5120592;27;20044;-67
2024/03/13 08:20:06;;;;;;;54.42;22.65;;;9.40;99.90;;;;;;5102370;27;20340;-67
2024/03/13 08:22:32;;;;;;;58.42;22.20;;;9.40;99.90;;;;;;5134258;27;20138;-67
2024/03/13 08:24:58;;;;;;;55.20;23.20;;;9.50;99.90;;;;;;5105256;27;20047;-67
2024/03/13 08:27:24;;;;;;;53.40;22.70;;;9.60;99.90;;;;;;5104438;27;20046;-67
2024/03/13 08:29:49;;;;;;;54.40;22.33;;;9.50;99.90;;;;;;5122376;27;20115;-67
2024/03/13 08:32:15;;;;;;;48.20;21.63;;;9.60;99.90;;;;;;5117742;27;20122;-67
2024/03/13 08:34:43;;;;;;;49.95;22.27;;;9.60;99.90;;;;;;5100464;27;20480;-67
2024/03/13 08:37:10;;;;;;;40.63;20.40;;;9.70;99.90;;;;;;5109158;27;20062;-67
2024/03/13 08:39:36;;;;;;;50.92;22.25;;;9.60;99.90;;;;;;5088471;27;20054;-67
2024/03/13 08:42:02;;;;;;;49.60;21.08;;;9.70;99.90;;;;;;5103606;27;20039;-67
2024/03/13 08:44:29;;;;;;;42.20;19.55;;;9.70;99.90;;;;;;5121235;27;20044;-67
2024/03/13 08:46:55;;;;;;;44.40;19.48;;;9.70;99.90;;;;;;5122526;27;20119;-67
2024/03/13 08:49:20;;;;;;;36.85;18.25;;;9.70;99.90;;;;;;5101747;27;20170;-66
2024/03/13 08:51:46;;;;;;;40.42;18.70;;;9.80;99.90;;;;;;5125654;27;20038;-67
2024/03/13 08:54:12;;;;;;;33.58;16.88;;;9.80;99.90;;;;;;5101456;27;20043;-67
2024/03/13 08:56:38;;;;;;;38.85;18.27;;;9.80;99.90;;;;;;5088865;27;20046;-67
2024/03/13 08:59:05;;;;;;;37.30;17.90;;;9.80;99.90;;;;;;5102421;27;20043;-67
2024/03/13 09:01:31;;;;;;;34.65;18.70;;;9.80;99.90;;;;;;5103640;27;20451;-67
2024/03/13 09:03:58;;;;;;;39.28;19.42;;;9.80;99.90;;;;;;5099004;27;20399;-67
2024/03/13 09:06:23;;;;;;;37.30;18.83;;;9.90;99.90;;;;;;5103673;27;20044;-67
2024/03/13 09:08:49;;;;;;;41.50;19.42;;;10.00;99.90;;;;;;5138253;27;20602;-67
2024/03/13 09:11:18;;;;;;;38.80;20.95;;;10.00;99.90;;;;;;5119553;27;20028;-67
2024/03/13 09:13:44;;;;;;;46.78;22.33;;;10.00;99.90;;;;;;5121227;27;20497;-67
2024/03/13 09:16:12;;;;;;;46.25;21.08;;;10.10;99.90;;;;;;5124288;27;20042;-67
2024/03/13 09:18:38;;;;;;;55.85;22.40;;;10.10;99.90;;;;;;5119803;27;20035;-67
2024/03/13 09:21:04;;;;;;;48.47;21.80;;;10.10;99.90;;;;;;5120605;27;20036;-67
2024/03/13 09:23:31;;;;;;;49.95;23.30;;;10.10;99.90;;;;;;5102266;27;20464;-67
2024/03/13 09:25:57;;;;;;;48.03;22.63;;;10.20;99.90;;;;;;5135353;27;20120;-67
2024/03/13 09:28:23;;;;;;;55.90;22.92;;;10.20;99.90;;;;;;5121771;27;20152;-67
2024/03/13 09:30:48;;;;;;;46.78;23.38;;;10.30;99.90;;;;;;5121431;27;20048;-67
2024/03/13 09:33:14;;;;;;;53.58;24.67;;;10.30;99.90;;;;;;5101463;27;20047;-67
2024/03/13 09:35:39;;;;;;;54.90;24.05;;;10.40;99.90;;;;;;5124699;27;20039;-67
2024/03/13 09:38:05;;;;;;;61.92;24.65;;;10.40;99.90;;;;;;5134819;27;20039;-67
2024/03/13 09:40:31;;;;;;;53.08;24.40;;;10.40;99.90;;;;;;5102068;27;20674;-67
2024/03/13 09:43:01;;;;;;;53.88;25.40;;;10.50;99.90;;;;;;5123462;27;20182;-67
2024/03/13 09:45:26;;;;;;;56.20;24.70;;;10.50;99.90;;;;;;5120006;27;20046;-67
2024/03/13 09:47:53;;;;;;;58.33;25.02;;;10.50;99.90;;;;;;5122093;27;20035;-67
2024/03/13 09:50:20;;;;;;;57.63;24.65;;;10.50;99.90;;;;;;5121082;27;20077;-67
2024/03/13 09:52:49;;;;;;;59.30;27.27;;;10.60;99.90;;;;;;5102542;27;21076;-67
2024/03/13 09:55:18;;;;;;;50.20;23.40;;;10.60;99.90;;;;;;5135189;27;20047;-67
2024/03/13 09:57:46;;;;;;;50.13;23.58;;;10.70;99.90;;;;;;5121902;27;20035;-66
2024/03/13 10:00:19;;;;;;;53.38;24.95;;;10.70;99.90;;;;;;5103999;27;20038;-67
2024/03/13 10:02:51;;;;;;;51.83;24.10;;;10.70;99.90;;;;;;5131721;27;20043;-67
2024/03/13 10:05:20;;;;;;;55.55;23.80;;;10.80;99.90;;;;;;5134662;27;20069;-67
2024/03/13 10:07:50;;;;;;;56.90;24.05;;;10.80;99.90;;;;;;5121935;27;20114;-67
2024/03/13 10:10:26;;;;;;;54.00;21.95;;;10.80;99.90;;;;;;5101846;27;20392;-67
2024/03/13 10:12:54;;;;;;;53.08;22.00;;;10.90;99.90;;;;;;5133383;27;20059;-67
2024/03/13 10:15:21;;;;;;;43.63;21.27;;;11.10;99.90;;;;;;5096297;27;20049;-67
2024/03/13 10:18:13;;;;;;;47.33;20.67;;;11.00;99.90;;;;;;5122366;27;20043;-67
2024/03/13 10:21:14;;;;;;;42.58;20.10;;;11.00;99.90;;;;;;5133504;27;20047;-67
2024/03/13 10:23:43;;;;;;;37.13;18.13;;;11.00;99.90;;;;;;5121024;27;20039;-68
2024/03/13 10:26:10;;;;;;;30.75;18.52;;;11.00;99.90;;;;;;5116752;27;20051;-68
2024/03/13 10:28:35;;;;;;;29.40;16.58;;;11.10;99.90;;;;;;5120246;27;20398;-68
2024/03/13 10:31:02;;;;;;;27.45;15.30;;;11.20;99.90;;;;;;5102892;27;20380;-67
2024/03/13 10:33:29;;;;;;;26.05;14.52;;;11.20;99.90;;;;;;5121074;27;20039;-68
2024/03/13 10:35:55;;;;;;;29.52;15.07;;;11.20;99.90;;;;;;5118211;27;20044;-67
2024/03/13 10:38:21;;;;;;;26.48;14.38;;;11.20;99.90;;;;;;5135198;27;20039;-67
2024/03/13 10:40:46;;;;;;;26.27;15.18;;;11.20;99.90;;;;;;5135134;27;20074;-68
2024/03/13 10:43:12;;;;;;;21.48;14.05;;;11.20;99.90;;;;;;5120017;27;20135;-68
2024/03/13 10:45:38;;;;;;;25.15;15.75;;;11.20;99.90;;;;;;5120532;27;20036;-67
2024/03/13 10:48:10;;;;;;;22.67;16.20;;;11.20;99.90;;;;;;5136006;27;20481;-68
2024/03/13 10:50:35;;;;;;;22.52;15.05;;;11.20;99.90;;;;;;5101817;27;20035;-68
2024/03/13 10:53:04;;;;;;;26.02;15.85;;;11.40;99.90;;;;;;5119397;27;20047;-68
2024/03/13 10:55:29;;;;;;;24.23;15.90;;;11.30;99.90;;;;;;5134218;27;20717;-67
2024/03/13 10:57:55;;;;;;;26.13;18.02;;;11.30;99.90;;;;;;5120848;27;20084;-66
2024/03/13 11:00:22;;;;;;;27.90;17.35;;;11.30;99.90;;;;;;5100030;27;20681;-65
2024/03/13 11:02:50;;;;;;;27.40;17.23;;;11.30;99.90;;;;;;5102596;27;20047;-66
2024/03/13 11:05:17;;;;;;;32.22;17.65;;;11.30;99.90;;;;;;5118919;27;20039;-66
2024/03/13 11:07:43;;;;;;;28.88;19.48;;;11.30;99.90;;;;;;5133406;27;20445;-66
2024/03/13 11:10:14;;;;;;;31.98;18.98;;;11.40;99.90;;;;;;5116215;27;20036;-65
2024/03/13 11:12:45;;;;;;;30.40;18.27;;;11.40;99.90;;;;;;5096376;27;20047;-66
2024/03/13 11:15:18;;;;;;;33.70;18.88;;;11.40;99.90;;;;;;5096938;27;20039;-66
2024/03/13 11:17:50;;;;;;;30.65;18.70;;;11.40;99.90;;;;;;5130064;27;20039;-66
2024/03/13 11:20:21;;;;;;;35.72;19.50;;;11.40;99.90;;;;;;5131855;27;20043;-65
2024/03/13 11:22:58;;;;;;;31.13;18.15;;;11.50;99.90;;;;;;5113184;27;20502;-65
2024/03/13 11:25:25;;;;;;;36.13;17.92;;;11.50;99.90;;;;;;5128873;27;20486;-66
2024/03/13 11:27:56;;;;;;;27.92;17.95;;;11.60;99.90;;;;;;5127984;27;20080;-65
2024/03/13 11:30:24;;;;;;;28.90;18.15;;;11.60;99.90;;;;;;5132594;27;20039;-66
2024/03/13 11:32:51;;;;;;;36.28;18.60;;;11.60;99.90;;;;;;5125017;27;20050;-66
2024/03/13 11:35:18;;;;;;;36.65;18.48;;;11.60;99.90;;;;;;5123609;27;20046;-65
2024/03/13 11:37:47;;;;;;;33.40;17.55;;;11.60;99.90;;;;;;5119313;27;20047;-65
2024/03/13 11:40:15;;;;;;;33.10;19.55;;;11.60;99.90;;;;;;5097374;27;20149;-66
2024/03/13 11:42:43;;;;;;;37.90;19.42;;;11.60;99.90;;;;;;5118695;27;20035;-66
2024/03/13 11:45:15;;;;;;;37.60;18.88;;;11.60;99.90;;;;;;5120405;27;20043;-66
2024/03/13 11:47:47;;;;;;;35.97;18.88;;;11.60;99.90;;;;;;5117255;27;20035;-66
2024/03/13 11:50:13;;;;;;;38.45;20.92;;;11.60;99.90;;;;;;5103936;27;20074;-66
2024/03/13 11:52:55;;;;;;;35.05;19.60;;;11.60;99.90;;;;;;5123235;27;20073;-66
2024/03/13 11:55:27;;;;;;;35.88;20.70;;;11.60;99.90;;;;;;5132913;27;20061;-66
2024/03/13 11:58:03;;;;;;;33.95;19.05;;;11.70;99.90;;;;;;5136037;27;20043;-66
2024/03/13 12:00:29;;;;;;;37.42;18.88;;;11.60;99.90;;;;;;5117784;27;20546;-66
2024/03/13 12:02:59;;;;;;;35.45;19.58;;;11.60;99.90;;;;;;5124041;27;20035;-66
2024/03/13 12:05:32;;;;;;;33.97;19.73;;;11.60;99.90;;;;;;5121252;27;20065;-66
2024/03/13 12:08:02;;;;;;;42.20;21.00;;;11.70;99.90;;;;;;5083090;27;20047;-66
2024/03/13 12:10:28;;;;;;;32.95;17.60;;;11.70;99.90;;;;;;5113801;27;20073;-66
2024/03/13 12:12:54;;;;;;;27.38;19.08;;;11.70;99.90;;;;;;5103531;27;20043;-66
2024/03/13 12:15:21;;;;;;;35.08;19.85;;;11.70;99.90;;;;;;5122738;27;20035;-66
2024/03/13 12:17:51;;;;;;;32.38;17.90;;;11.80;99.90;;;;;;5132108;27;20047;-66
2024/03/13 12:20:22;;;;;;;30.15;18.80;;;11.70;99.90;;;;;;5103487;27;20126;-66
2024/03/13 12:22:49;;;;;;;35.55;18.10;;;11.80;99.90;;;;;;5120897;27;20055;-66
2024/03/13 12:25:15;;;;;;;31.90;17.52;;;11.80;99.90;;;;;;5118980;27;20063;-66
2024/03/13 12:27:45;;;;;;;30.58;18.48;;;11.80;99.90;;;;;;5101443;27;20471;-66
2024/03/13 12:30:11;;;;;;;28.48;17.30;;;11.90;99.90;;;;;;5103053;27;20039;-65
2024/03/13 12:32:37;;;;;;;32.92;16.88;;;11.90;99.90;;;;;;5132395;27;20047;-66
2024/03/13 12:35:09;;;;;;;33.00;17.48;;;12.00;99.90;;;;;;5113043;27;20044;-66
2024/03/13 12:37:35;;;;;;;28.65;16.05;;;12.00;99.90;;;;;;5137881;27;20622;-66
2024/03/13 12:40:08;;;;;;;28.63;15.70;;;11.90;99.90;;;;;;5101342;27;20294;-65
2024/03/13 12:42:54;;;;;;;34.33;17.52;;;11.90;99.90;;;;;;5100610;27;20067;-66
2024/03/13 12:45:21;;;;;;;34.95;18.40;;;12.00;99.90;;;;;;5100136;27;20505;-66
2024/03/13 12:47:47;;;;;;;31.75;18.23;;;11.90;99.90;;;;;;5121385;27;20083;-66
2024/03/13 12:50:15;;;;;;;30.52;18.33;;;12.00;99.90;;;;;;5137794;27;20031;-66
2024/03/13 12:52:54;;;;;;;33.65;18.63;;;12.00;99.90;;;;;;5104562;27;20027;-66